BKL weather

Burke Lakefront Airport
Cleveland, Ohio, United States

Public forecast

Using degrees Fahrenheit for public forecast. Weather courtesy of forecast.io.

Current aviation weather report (METAR) for Burke Lakefront Airport

Retrieved 2019/10/19 04:53 UTC (42 minutes ago):

KBKL 190453Z AUTO 00000KT 10SM CLR 07/03 A3003 RMK AO2 SLP170 T00670028 401220067

Closest aviation forecast (TAF) to Burke Lakefront Airport

Forecast is more than 12 hours old.

Closest forecast is Cuyahoga County Airport, 9.3 nm (17.2 km) ENE. Retrieved 2016/07/24 12:26 UTC (3 years ago):

TAF KCGF 241126Z 2412/2512 18008KT P6SM BKN060 OVC200 FM241500 25010KT P6SM SCT035 BKN200 FM242000 27008KT P6SM VCTS BKN040CB OVC060 FM242300 21005KT P6SM SCT120 BKN200